Time;durP1;ratioP1;P1;durP2;ratioP2;P2;SDS_P1;SDS_P2;PMS_P1;PMS_P2;Temp;Humidity;BMP_temperature;BMP_pressure;BME280_temperature;BME280_humidity;BME280_pressure;Samples;Min_cycle;Max_cycle;Signal;HPM_P1;HPM_P2
2023/07/05 00:00:24;;;;;;;7.77;4.90;;;;;;;24.81;49.57;100410.08;124366;1102;104650;-75
2023/07/05 00:03:16;;;;;;;8.00;4.73;;;;;;;24.78;50.04;100408.38;124453;1102;104347;-76
2023/07/05 00:05:48;;;;;;;9.30;4.63;;;;;;;24.79;50.21;100414.61;124310;1102;104243;-76
2023/07/05 00:08:22;;;;;;;8.97;4.87;;;;;;;24.79;50.03;100406.56;124400;1102;104824;-76
2023/07/05 00:11:04;;;;;;;8.67;4.60;;;;;;;24.75;50.25;100405.77;124373;1102;104212;-76
2023/07/05 00:13:36;;;;;;;11.20;4.90;;;;;;;24.69;50.38;100414.83;124397;1102;104380;-78
2023/07/05 00:16:09;;;;;;;11.87;4.70;;;;;;;24.66;50.58;100406.86;124469;1102;104217;-76
2023/07/05 00:18:42;;;;;;;10.53;5.20;;;;;;;24.64;50.78;100415.88;124391;1102;104188;-77
2023/07/05 00:21:13;;;;;;;10.77;5.30;;;;;;;24.61;50.74;100413.27;124432;1102;101906;-76
2023/07/05 00:23:47;;;;;;;9.03;5.10;;;;;;;24.60;51.10;100412.37;124421;1102;104204;-76
2023/07/05 00:26:18;;;;;;;11.17;5.50;;;;;;;24.57;51.11;100413.34;124424;1102;102505;-76
2023/07/05 00:28:49;;;;;;;12.60;5.10;;;;;;;24.57;51.12;100407.08;124456;1102;101951;-76
2023/07/05 00:31:21;;;;;;;9.40;5.23;;;;;;;24.57;51.66;100404.39;124353;1101;104200;-77
2023/07/05 00:33:52;;;;;;;14.57;5.10;;;;;;;24.53;51.68;100403.56;124309;1102;104179;-76
2023/07/05 00:36:23;;;;;;;11.45;5.45;;;;;;;24.52;51.76;100399.10;124369;1102;102186;-76
2023/07/05 00:38:55;;;;;;;9.73;5.00;;;;;;;24.51;52.03;100397.36;124324;1102;104469;-76
2023/07/05 00:41:26;;;;;;;11.57;5.30;;;;;;;24.49;52.01;100392.94;124293;1102;104268;-76
2023/07/05 00:43:58;;;;;;;9.83;5.03;;;;;;;24.49;52.12;100390.26;124319;1102;104267;-76
2023/07/05 00:46:32;;;;;;;12.33;5.37;;;;;;;24.49;52.45;100398.30;124344;1102;102203;-76
2023/07/05 00:49:07;;;;;;;9.90;4.90;;;;;;;24.49;52.55;100395.62;124269;1102;104220;-76
2023/07/05 00:51:45;;;;;;;11.30;5.03;;;;;;;24.49;52.19;100392.94;124315;1100;102039;-76
2023/07/05 00:54:26;;;;;;;14.83;5.40;;;;;;;24.47;52.55;100392.97;124258;1102;103972;-76
2023/07/05 00:57:01;;;;;;;8.50;4.60;;;;;;;24.46;52.66;100401.05;124350;1101;104294;-76
2023/07/05 00:59:39;;;;;;;9.75;5.00;;;;;;;24.41;52.69;100396.67;124343;1102;104245;-76
2023/07/05 01:02:11;;;;;;;10.53;5.40;;;;;;;24.38;52.93;100394.06;124346;1102;104230;-76
2023/07/05 01:04:44;;;;;;;9.85;5.15;;;;;;;24.36;53.17;100385.17;124372;1102;104287;-77
2023/07/05 01:07:15;;;;;;;10.23;5.27;;;;;;;24.36;52.82;100389.67;124425;1102;104424;-76
2023/07/05 01:09:49;;;;;;;10.47;5.00;;;;;;;24.35;53.16;100388.77;124346;1101;104248;-76
2023/07/05 01:12:25;;;;;;;9.23;5.43;;;;;;;24.34;53.03;100400.43;124406;1102;104307;-76
2023/07/05 01:15:04;;;;;;;10.37;5.30;;;;;;;24.29;53.74;100396.95;124439;1102;103180;-77
2023/07/05 01:17:43;;;;;;;8.65;4.95;;;;;;;24.24;53.36;100401.55;124356;1102;104249;-76
2023/07/05 01:20:30;;;;;;;12.83;5.40;;;;;;;24.15;53.71;100399.97;124471;1100;104217;-77
2023/07/05 01:23:34;;;;;;;10.57;5.67;;;;;;;24.12;54.02;100412.53;126271;1102;101836;-76
2023/07/05 01:26:25;;;;;;;13.30;6.20;;;;;;;24.09;54.10;100407.23;124376;1102;104200;-76
2023/07/05 01:29:19;;;;;;;12.03;6.00;;;;;;;24.07;53.91;100415.31;124416;1102;118323;-77
2023/07/05 01:31:59;;;;;;;14.43;6.17;;;;;;;24.04;54.32;100415.38;124398;1102;104300;-77
2023/07/05 01:34:38;;;;;;;13.73;6.97;;;;;;;24.03;54.54;100402.91;124415;1102;104290;-76
2023/07/05 01:37:21;;;;;;;16.03;7.83;;;;;;;24.00;54.79;100413.70;124440;1102;104306;-76
2023/07/05 01:39:52;;;;;;;17.10;7.63;;;;;;;23.98;54.71;100408.37;124450;1102;104162;-76
2023/07/05 01:42:27;;;;;;;18.67;8.40;;;;;;;23.95;54.86;100399.48;124411;1102;103980;-76
2023/07/05 01:44:59;;;;;;;17.27;8.40;;;;;;;23.94;55.16;100406.66;124439;1102;101996;-76
2023/07/05 01:47:36;;;;;;;17.10;7.73;;;;;;;23.92;55.64;100405.81;124502;1102;101823;-76
2023/07/05 01:50:15;;;;;;;18.67;8.30;;;;;;;23.90;55.52;100399.59;124336;1102;104182;-76
2023/07/05 01:52:53;;;;;;;19.73;7.70;;;;;;;23.89;55.60;100405.88;124386;1102;104166;-76
2023/07/05 01:55:30;;;;;;;16.47;7.57;;;;;;;23.85;55.31;100410.39;124363;1102;102046;-76
2023/07/05 01:58:07;;;;;;;14.87;7.43;;;;;;;23.84;55.97;100410.42;124331;1101;104271;-76
2023/07/05 02:00:40;;;;;;;18.33;7.70;;;;;;;23.83;56.08;100408.66;124364;1102;104274;-77
2023/07/05 02:03:15;;;;;;;16.15;8.13;;;;;;;23.80;56.14;100406.91;124332;1102;104208;-76
2023/07/05 02:05:48;;;;;;;16.70;8.20;;;;;;;23.81;56.24;100408.68;124487;1100;104168;-77
2023/07/05 02:08:25;;;;;;;15.97;7.83;;;;;;;23.80;56.66;100406.91;124434;1102;102051;-77
2023/07/05 02:10:56;;;;;;;16.23;7.97;;;;;;;23.79;56.52;100409.62;124342;1102;104230;-77
2023/07/05 02:13:28;;;;;;;18.55;7.50;;;;;;;23.76;56.93;100404.32;124368;1102;104252;-77
2023/07/05 02:15:59;;;;;;;15.73;7.87;;;;;;;23.74;56.91;100408.84;124402;1102;104211;-77
2023/07/05 02:18:30;;;;;;;17.37;8.27;;;;;;;23.74;56.97;100411.52;124568;1101;104268;-77
2023/07/05 02:21:02;;;;;;;16.33;7.63;;;;;;;23.76;57.08;100412.36;124503;1102;102242;-77
2023/07/05 02:23:33;;;;;;;14.37;7.60;;;;;;;23.78;57.47;100402.48;124494;1102;104175;-77
2023/07/05 02:26:06;;;;;;;16.07;7.23;;;;;;;23.79;57.55;100405.12;124412;1101;102438;-77
2023/07/05 02:28:38;;;;;;;20.67;8.20;;;;;;;23.79;57.39;100407.81;124512;1102;104230;-77
2023/07/05 02:31:11;;;;;;;18.03;8.23;;;;;;;23.78;57.61;100398.03;124534;1102;102810;-77
2023/07/05 02:33:44;;;;;;;15.20;7.57;;;;;;;23.75;57.55;100400.77;124493;1102;103500;-76
2023/07/05 02:36:17;;;;;;;22.67;8.97;;;;;;;23.76;58.03;100410.55;124413;1102;104224;-77
2023/07/05 02:38:48;;;;;;;21.20;9.60;;;;;;;23.79;58.16;100401.58;124483;1102;104255;-76
2023/07/05 02:41:20;;;;;;;20.05;9.05;;;;;;;23.81;58.26;100410.45;124471;1102;104211;-76
2023/07/05 02:43:52;;;;;;;19.70;7.90;;;;;;;23.83;58.35;100401.48;124524;1102;104178;-76
2023/07/05 02:46:25;;;;;;;14.80;7.90;;;;;;;23.88;58.28;100397.88;124515;1102;104264;-76
2023/07/05 02:48:57;;;;;;;16.73;6.77;;;;;;;23.90;58.58;100396.03;124457;1102;104211;-77
2023/07/05 02:51:29;;;;;;;16.73;7.10;;;;;;;23.92;58.63;100399.55;124469;1102;104172;-77
2023/07/05 02:54:00;;;;;;;18.93;7.27;;;;;;;23.93;58.53;100402.20;124391;1102;104176;-77
2023/07/05 02:56:32;;;;;;;14.30;6.40;;;;;;;23.92;58.70;100405.81;124437;1102;102018;-77
2023/07/05 02:59:03;;;;;;;17.93;7.90;;;;;;;23.92;58.95;100407.59;124361;1102;104175;-77
2023/07/05 03:01:34;;;;;;;15.40;7.27;;;;;;;23.91;58.91;100406.72;124348;1102;104217;-76
2023/07/05 03:04:06;;;;;;;14.37;7.37;;;;;;;23.88;59.15;100406.78;124420;1102;101887;-76
2023/07/05 03:06:37;;;;;;;14.60;7.23;;;;;;;23.86;59.25;100406.81;124416;1102;101900;-76
2023/07/05 03:09:09;;;;;;;13.27;6.93;;;;;;;23.90;59.43;100407.63;124359;1102;102039;-76
2023/07/05 03:11:41;;;;;;;15.17;7.30;;;;;;;23.93;59.38;100404.01;124554;1102;104370;-77
2023/07/05 03:14:13;;;;;;;17.47;6.90;;;;;;;23.96;59.82;100401.27;124502;1100;104235;-76
2023/07/05 03:16:44;;;;;;;15.77;7.13;;;;;;;23.98;59.52;100396.74;124502;1102;102102;-77
2023/07/05 03:19:15;;;;;;;15.10;7.50;;;;;;;24.02;59.78;100398.45;124562;1102;104182;-76
2023/07/05 03:21:48;;;;;;;19.25;7.65;;;;;;;24.03;59.90;100392.19;124581;1102;101913;-77
2023/07/05 03:24:19;;;;;;;18.03;7.23;;;;;;;24.04;59.85;100389.48;124531;1102;104217;-77
2023/07/05 03:26:53;;;;;;;21.50;7.53;;;;;;;24.07;59.87;100398.36;124443;1102;104179;-76
2023/07/05 03:29:24;;;;;;;15.93;7.03;;;;;;;24.02;59.85;100387.73;124386;1102;104210;-76
2023/07/05 03:31:58;;;;;;;14.93;6.70;;;;;;;23.99;59.75;100390.48;124448;1102;102323;-77
2023/07/05 03:34:30;;;;;;;11.27;6.50;;;;;;;23.95;59.93;100403.08;124564;1102;104220;-76
2023/07/05 03:37:02;;;;;;;14.87;6.87;;;;;;;23.90;60.24;100398.71;124486;1102;104262;-76
2023/07/05 03:39:33;;;;;;;11.40;6.60;;;;;;;23.87;59.98;100402.33;124491;1102;102207;-77
2023/07/05 03:42:05;;;;;;;13.07;6.43;;;;;;;23.82;60.35;100405.06;124391;1102;104185;-77
2023/07/05 03:44:36;;;;;;;18.23;7.03;;;;;;;23.79;60.03;100404.26;124405;1102;104219;-77
2023/07/05 03:47:08;;;;;;;14.93;7.17;;;;;;;23.80;60.32;100403.36;124489;1100;104184;-76
2023/07/05 03:49:39;;;;;;;14.63;6.73;;;;;;;23.80;60.67;100403.36;124288;1102;101970;-75
2023/07/05 03:52:10;;;;;;;15.43;6.97;;;;;;;23.81;60.80;100397.06;124148;1102;104325;-75
2023/07/05 03:54:42;;;;;;;14.93;7.30;;;;;;;23.83;60.75;100396.13;124189;1100;104159;-74
2023/07/05 03:57:13;;;;;;;16.23;7.40;;;;;;;23.85;61.04;100396.13;124168;1102;104241;-75
2023/07/05 03:59:46;;;;;;;14.13;7.00;;;;;;;23.93;61.30;100396.84;124280;1102;104217;-76
2023/07/05 04:02:17;;;;;;;17.77;6.97;;;;;;;24.02;61.19;100396.65;124404;1101;104244;-76
2023/07/05 04:04:49;;;;;;;14.93;7.17;;;;;;;24.09;61.29;100397.42;124320;1102;103999;-77
2023/07/05 04:07:20;;;;;;;12.80;6.77;;;;;;;24.09;61.30;100392.06;124325;1102;104213;-75
2023/07/05 04:09:51;;;;;;;14.37;7.27;;;;;;;24.08;61.31;100394.77;124360;1102;104185;-76
2023/07/05 04:12:23;;;;;;;12.37;6.87;;;;;;;24.06;61.50;100392.13;124535;1102;104294;-76
2023/07/05 04:14:54;;;;;;;14.33;7.20;;;;;;;24.03;61.63;100387.70;124320;1102;104339;-76
2023/07/05 04:17:25;;;;;;;13.47;7.33;;;;;;;24.01;61.72;100386.86;124239;1101;104179;-78
2023/07/05 04:19:57;;;;;;;14.00;7.20;;;;;;;24.01;61.80;100389.55;124379;1100;101865;-75
2023/07/05 04:22:31;;;;;;;13.57;7.10;;;;;;;24.05;61.97;100387.67;124431;1102;111270;-76
2023/07/05 04:25:02;;;;;;;12.27;6.57;;;;;;;24.08;62.03;100384.05;124453;1102;104292;-78
2023/07/05 04:27:34;;;;;;;14.43;7.07;;;;;;;24.10;62.14;100377.72;124359;1102;102007;-76
2023/07/05 04:30:07;;;;;;;14.73;7.20;;;;;;;24.11;61.78;100379.49;124340;1102;104348;-78
2023/07/05 04:32:38;;;;;;;13.88;7.10;;;;;;;24.18;62.21;100374.87;124516;1102;104261;-78
2023/07/05 04:35:13;;;;;;;14.27;6.60;;;;;;;24.31;62.10;100380.83;124631;1102;102116;-79
2023/07/05 04:37:44;;;;;;;16.13;6.97;;;;;;;24.40;62.60;100367.20;124786;1102;103372;-78
2023/07/05 04:40:16;;;;;;;14.10;7.03;;;;;;;24.47;61.76;100370.65;124808;1101;104231;-79
2023/07/05 04:42:47;;;;;;;16.77;7.40;;;;;;;24.53;62.13;100379.42;124697;1102;102256;-79
2023/07/05 04:45:19;;;;;;;15.73;7.27;;;;;;;24.63;62.32;100372.05;124798;1102;102226;-81
2023/07/05 04:47:50;;;;;;;14.50;7.53;;;;;;;24.70;62.49;100372.81;124968;1102;103382;-80
2023/07/05 04:50:21;;;;;;;15.40;7.10;;;;;;;24.74;62.21;100377.16;124823;1102;101974;-79
2023/07/05 04:52:53;;;;;;;17.43;7.70;;;;;;;24.76;62.07;100381.58;124800;1102;102342;-77
2023/07/05 04:55:24;;;;;;;16.00;7.23;;;;;;;24.78;61.83;100381.54;124830;1102;102501;-78
2023/07/05 04:57:55;;;;;;;15.53;7.50;;;;;;;24.82;62.19;100390.39;124771;1102;104291;-80
2023/07/05 05:00:26;;;;;;;14.60;7.00;;;;;;;24.84;62.13;100380.48;124828;1102;102313;-79
2023/07/05 05:02:58;;;;;;;15.30;7.20;;;;;;;24.84;62.35;100385.85;124775;1102;104223;-79
2023/07/05 05:05:29;;;;;;;20.33;7.70;;;;;;;24.84;62.28;100392.13;124606;1102;104307;-80
2023/07/05 05:08:00;;;;;;;18.37;7.97;;;;;;;24.86;62.33;100386.72;124869;1102;101862;-79
2023/07/05 05:10:31;;;;;;;16.73;7.47;;;;;;;24.95;62.69;100389.17;125052;1102;102284;-81
2023/07/05 05:13:05;;;;;;;17.55;7.70;;;;;;;24.95;62.63;100383.80;124755;1102;102160;-76
2023/07/05 05:15:39;;;;;;;15.30;7.83;;;;;;;25.03;62.88;100383.61;125125;1102;102467;-79
2023/07/05 05:18:12;;;;;;;15.43;7.93;;;;;;;25.09;62.34;100388.81;124940;1102;104175;-79
2023/07/05 05:20:43;;;;;;;15.13;7.40;;;;;;;25.13;62.58;100387.79;124773;1102;104182;-78
2023/07/05 05:23:15;;;;;;;13.10;7.57;;;;;;;25.17;62.43;100384.11;124909;1102;104166;-80
2023/07/05 05:25:48;;;;;;;14.67;8.10;;;;;;;25.27;62.09;100379.37;124687;1102;101963;-78
2023/07/05 05:28:20;;;;;;;19.37;7.77;;;;;;;25.37;62.54;100386.30;124593;1102;104175;-79
2023/07/05 05:30:52;;;;;;;15.83;7.90;;;;;;;25.37;62.51;100388.08;124874;1101;104176;-76
2023/07/05 05:33:23;;;;;;;16.40;8.30;;;;;;;25.42;62.04;100392.42;124776;1102;104063;-80
2023/07/05 05:35:54;;;;;;;16.23;7.60;;;;;;;25.45;62.08;100395.02;124705;1102;103198;-76
2023/07/05 05:38:26;;;;;;;19.77;8.23;;;;;;;25.53;62.06;100385.87;124776;1102;104220;-76
2023/07/05 05:41:03;;;;;;;12.37;7.53;;;;;;;25.64;62.37;100390.00;125058;1102;103105;-78
2023/07/05 05:43:36;;;;;;;15.37;7.70;;;;;;;25.72;62.18;100386.23;125030;1102;103335;-81
2023/07/05 05:46:09;;;;;;;17.80;7.53;;;;;;;25.80;61.58;100382.41;125175;1102;102624;-80
2023/07/05 05:48:40;;;;;;;17.50;7.50;;;;;;;25.90;61.37;100379.42;124709;1101;104105;-78
2023/07/05 05:51:11;;;;;;;13.17;7.10;;;;;;;25.98;61.12;100388.19;124348;1102;104245;-76
2023/07/05 05:53:47;;;;;;;16.33;7.00;;;;;;;26.09;61.39;100385.17;124752;1102;104686;-77
2023/07/05 05:56:20;;;;;;;14.93;7.63;;;;;;;26.17;61.04;100381.31;124332;1102;102203;-79
2023/07/05 05:58:51;;;;;;;18.33;7.23;;;;;;;26.24;61.21;100382.02;124885;1102;102384;-79
2023/07/05 06:01:22;;;;;;;17.50;7.27;;;;;;;26.28;60.69;100383.66;124926;1102;102094;-79
2023/07/05 06:03:54;;;;;;;13.63;6.93;;;;;;;26.31;60.85;100380.88;124673;1102;101985;-77
2023/07/05 06:06:28;;;;;;;13.37;7.47;;;;;;;26.37;60.34;100382.51;124403;1102;101948;-78
2023/07/05 06:09:07;;;;;;;14.05;6.92;;;;;;;26.42;60.52;100376.98;124362;1102;104179;-77
2023/07/05 06:11:39;;;;;;;13.80;7.23;;;;;;;26.51;60.18;100384.76;124427;1100;102500;-76
2023/07/05 06:14:13;;;;;;;15.60;7.15;;;;;;;26.61;60.76;100377.26;124776;1102;104175;-78
2023/07/05 06:16:45;;;;;;;17.83;7.67;;;;;;;26.68;59.94;100384.25;124331;1102;104221;-75
2023/07/05 06:19:17;;;;;;;13.50;7.40;;;;;;;26.74;60.34;100381.36;124383;1102;101971;-78
2023/07/05 06:21:49;;;;;;;17.35;7.45;;;;;;;26.82;59.65;100378.41;124268;1102;104245;-75
2023/07/05 06:24:23;;;;;;;17.53;7.20;;;;;;;26.91;59.72;100380.76;124229;1102;101897;-75
2023/07/05 06:26:53;;;;;;;;;;;;;;;26.96;59.88;100372.52;124280;1102;104207;-75
2023/07/05 06:29:24;;;;;;;14.97;7.00;;;;;;;27.00;59.33;100376.88;124296;1102;104214;-76
2023/07/05 06:31:56;;;;;;;15.93;6.87;;;;;;;27.07;59.16;100370.36;124320;1102;104316;-76
2023/07/05 06:34:27;;;;;;;15.00;7.30;;;;;;;27.17;59.22;100370.91;124368;1101;104220;-76
2023/07/05 06:37:02;;;;;;;14.37;7.37;;;;;;;27.24;58.77;100373.34;124460;1102;102064;-79
2023/07/05 06:39:37;;;;;;;16.57;7.17;;;;;;;27.35;58.51;100370.30;124340;1102;104236;-77
2023/07/05 06:42:08;;;;;;;16.27;6.97;;;;;;;27.43;58.62;100372.71;124194;1102;104207;-76
2023/07/05 06:44:47;;;;;;;15.50;6.60;;;;;;;27.52;58.11;100375.08;124411;1102;104163;-75
2023/07/05 06:47:23;;;;;;;15.90;6.60;;;;;;;27.60;57.65;100370.27;124207;1102;104217;-75
2023/07/05 06:49:58;;;;;;;12.20;5.90;;;;;;;27.67;56.61;100370.05;124231;1101;104173;-77
2023/07/05 06:52:35;;;;;;;10.27;5.60;;;;;;;27.74;56.46;100372.45;124232;1101;104188;-78
2023/07/05 06:55:11;;;;;;;11.80;6.00;;;;;;;27.88;56.19;100365.67;124170;1102;104242;-76
2023/07/05 06:57:42;;;;;;;12.63;6.27;;;;;;;27.97;55.64;100363.52;125628;1101;101983;-76
2023/07/05 07:00:17;;;;;;;16.40;6.20;;;;;;;28.11;55.28;100352.20;124171;1102;102046;-74
2023/07/05 07:02:49;;;;;;;10.13;5.90;;;;;;;28.25;54.99;100357.05;125529;1101;104256;-74
2023/07/05 07:05:22;;;;;;;15.10;6.33;;;;;;;28.40;54.86;100358.23;124263;1099;102065;-73
2023/07/05 07:07:54;;;;;;;13.03;6.37;;;;;;;28.56;54.04;100361.16;124252;1099;104734;-75
2023/07/05 07:10:26;;;;;;;10.47;5.90;;;;;;;28.69;53.90;100353.49;124173;1099;104274;-74
2023/07/05 07:13:06;;;;;;;13.47;6.17;;;;;;;28.81;53.67;100357.48;125618;1099;102457;-76
2023/07/05 07:15:43;;;;;;;10.17;6.20;;;;;;;28.98;52.53;100362.16;124245;1102;104235;-78
2023/07/05 07:18:18;;;;;;;11.90;5.60;;;;;;;29.20;52.32;100363.03;124270;1101;104251;-75
2023/07/05 07:20:56;;;;;;;14.50;5.87;;;;;;;29.39;51.11;100357.68;124165;1102;102073;-74
2023/07/05 07:23:32;;;;;;;9.00;5.93;;;;;;;29.63;50.10;100367.45;124148;1101;104252;-74
2023/07/05 07:26:10;;;;;;;14.37;6.13;;;;;;;29.80;49.92;100358.59;124134;1102;118346;-73
2023/07/05 07:28:42;;;;;;;13.07;7.00;;;;;;;30.04;49.69;100368.23;124097;1102;104252;-75
2023/07/05 07:31:21;;;;;;;14.13;7.43;;;;;;;30.22;49.00;100371.03;124145;1101;104245;-76
2023/07/05 07:33:53;;;;;;;13.93;7.40;;;;;;;30.33;49.28;100370.52;125529;1101;104230;-75
2023/07/05 07:36:27;;;;;;;16.53;7.83;;;;;;;30.53;48.89;100370.44;124244;1102;101935;-77
2023/07/05 07:38:59;;;;;;;17.70;9.37;;;;;;;30.74;48.62;100367.60;124154;1102;102044;-76
2023/07/05 07:41:36;;;;;;;16.17;9.43;;;;;;;30.87;47.60;100373.27;124320;1102;104258;-76
2023/07/05 07:44:10;;;;;;;15.60;9.30;;;;;;;31.02;47.80;100368.94;125112;1101;101827;-75
2023/07/05 07:46:48;;;;;;;14.27;7.70;;;;;;;31.25;47.13;100365.03;124240;1102;110897;-75
2023/07/05 07:49:20;;;;;;;17.45;7.85;;;;;;;31.56;46.36;100363.43;125234;1102;101922;-75
2023/07/05 07:51:53;;;;;;;11.67;7.73;;;;;;;31.80;45.84;100370.20;125100;1102;104267;-75
2023/07/05 07:54:30;;;;;;;13.17;7.97;;;;;;;31.93;45.23;100372.23;124284;1102;104162;-76
2023/07/05 07:57:05;;;;;;;17.17;7.67;;;;;;;32.09;44.80;100367.75;124980;1102;104063;-73
2023/07/05 07:59:41;;;;;;;12.57;7.20;;;;;;;32.37;44.42;100371.61;124657;1102;101930;-75
2023/07/05 08:02:16;;;;;;;15.30;7.40;;;;;;;32.64;43.71;100358.28;125748;1101;103395;-75
2023/07/05 08:04:50;;;;;;;13.67;8.13;;;;;;;32.77;42.92;100366.57;124182;1102;104230;-73
2023/07/05 08:07:24;;;;;;;18.77;8.40;;;;;;;32.86;42.74;100363.31;124441;1102;107020;-75
2023/07/05 08:10:00;;;;;;;18.80;8.33;;;;;;;32.88;42.41;100366.83;124278;1102;101891;-73
2023/07/05 08:12:39;;;;;;;14.23;8.13;;;;;;;32.81;42.01;100365.44;125195;1102;104373;-74
2023/07/05 08:15:16;;;;;;;12.50;7.10;;;;;;;32.82;41.74;100356.33;124348;1102;104288;-76
2023/07/05 08:17:59;;;;;;;11.67;7.27;;;;;;;33.00;41.74;100356.19;124370;1102;102215;-75
2023/07/05 08:20:30;;;;;;;12.10;7.20;;;;;;;33.19;41.14;100359.55;125267;1102;102042;-75
2023/07/05 08:23:01;;;;;;;13.40;7.13;;;;;;;33.43;40.47;100359.02;124193;1102;104249;-75
2023/07/05 08:25:37;;;;;;;11.35;7.05;;;;;;;33.62;39.61;100361.46;124240;1102;104341;-74
2023/07/05 08:28:13;;;;;;;13.47;6.57;;;;;;;33.72;39.67;100359.92;124244;1102;101858;-73
2023/07/05 08:30:55;;;;;;;12.67;7.33;;;;;;;33.94;38.61;100356.72;124212;1102;104238;-73
2023/07/05 08:33:28;;;;;;;11.10;6.87;;;;;;;34.13;38.99;100352.81;124196;1102;104184;-72
2023/07/05 08:36:11;;;;;;;12.27;6.77;;;;;;;34.28;38.57;100354.52;124577;1102;104220;-73
2023/07/05 08:38:46;;;;;;;;;;;;;;;34.07;36.48;100354.07;125580;1100;104169;-75
2023/07/05 08:41:41;;;;;;;12.53;6.37;;;;;;;34.01;37.88;100362.63;124292;1102;102341;-75
2023/07/05 08:44:32;;;;;;;;;;;;;;;;;;;;;
2023/07/05 08:47:37;;;;;;;11.90;6.22;;;;;;;33.97;38.21;100352.91;124097;1102;103656;-75
2023/07/05 08:50:30;;;;;;;12.43;6.73;;;;;;;33.92;37.32;100353.20;124251;1102;104195;-74
2023/07/05 08:53:06;;;;;;;11.00;6.33;;;;;;;33.98;37.05;100352.81;124271;1102;102048;-75
2023/07/05 08:55:52;;;;;;;12.87;6.37;;;;;;;34.19;36.80;100350.55;124228;1102;104213;-74
2023/07/05 08:58:34;;;;;;;10.50;6.10;;;;;;;34.36;36.51;100344.02;124251;1101;118329;-74
2023/07/05 09:01:11;;;;;;;9.93;6.50;;;;;;;34.56;36.31;100352.69;124138;1102;102560;-72
2023/07/05 09:03:44;;;;;;;9.93;6.40;;;;;;;34.71;35.47;100335.31;124062;1102;104201;-75
2023/07/05 09:06:25;;;;;;;10.37;6.40;;;;;;;34.72;35.58;100342.52;124154;1102;104205;-75
2023/07/05 09:09:22;;;;;;;12.53;6.60;;;;;;;34.67;35.68;100339.24;125521;1101;104217;-75
2023/07/05 09:12:08;;;;;;;12.10;6.83;;;;;;;34.85;35.03;100339.84;124112;1102;104195;-75
2023/07/05 09:14:54;;;;;;;11.17;6.20;;;;;;;34.89;35.01;100343.23;124126;1101;104408;-75
2023/07/05 09:17:35;;;;;;;12.30;6.63;;;;;;;34.92;34.72;100341.19;124138;1101;104217;-75
2023/07/05 09:20:38;;;;;;;8.97;6.10;;;;;;;34.89;34.95;100338.67;124095;1102;104334;-76
2023/07/05 09:23:15;;;;;;;9.28;6.42;;;;;;;35.05;34.71;100343.06;124234;1102;104236;-76
2023/07/05 09:25:59;;;;;;;11.83;6.30;;;;;;;35.17;34.91;100336.75;124140;1102;104223;-77
2023/07/05 09:28:38;;;;;;;11.63;6.07;;;;;;;35.27;34.63;100332.41;124173;1102;104179;-73
2023/07/05 09:31:14;;;;;;;11.30;6.37;;;;;;;35.38;34.52;100322.61;124206;1102;104277;-75
2023/07/05 09:33:49;;;;;;;12.03;6.33;;;;;;;35.30;34.24;100334.06;125499;1101;104252;-75
2023/07/05 09:36:26;;;;;;;14.63;6.53;;;;;;;35.24;33.89;100329.00;124174;1102;104230;-76
2023/07/05 09:39:07;;;;;;;11.20;6.53;;;;;;;35.13;34.34;100326.17;124150;1102;104194;-74
2023/07/05 09:41:46;;;;;;;13.60;6.30;;;;;;;35.07;34.19;100320.14;124087;1102;104415;-74
2023/07/05 09:44:20;;;;;;;10.30;6.20;;;;;;;35.12;34.05;100319.82;124113;1100;104274;-75
2023/07/05 09:46:54;;;;;;;10.93;6.90;;;;;;;34.97;34.08;100319.06;124108;1102;104271;-74
2023/07/05 09:49:28;;;;;;;11.87;6.50;;;;;;;34.82;34.20;100322.84;124156;1102;104188;-73
2023/07/05 09:52:00;;;;;;;10.65;6.58;;;;;;;34.66;34.45;100318.41;124207;1102;102027;-74
2023/07/05 09:54:33;;;;;;;11.05;5.83;;;;;;;34.58;34.47;100307.17;124100;1102;104338;-75
2023/07/05 09:57:21;;;;;;;10.55;6.40;;;;;;;34.47;34.52;100309.73;124203;1102;104248;-79
2023/07/05 09:59:53;;;;;;;11.70;6.40;;;;;;;34.39;34.70;100318.41;124067;1101;111584;-76
2023/07/05 10:02:31;;;;;;;10.90;5.83;;;;;;;34.29;34.53;100317.30;125020;1101;104284;-78
2023/07/05 10:05:14;;;;;;;10.65;6.50;;;;;;;34.26;34.63;100310.20;124140;1102;101995;-76
2023/07/05 10:08:16;;;;;;;12.63;6.57;;;;;;;34.37;34.72;100298.59;124180;1102;104175;-77
2023/07/05 10:10:50;;;;;;;12.57;6.60;;;;;;;34.50;34.41;100309.52;124232;1102;104188;-77
2023/07/05 10:13:37;;;;;;;12.47;6.30;;;;;;;34.53;34.40;100304.77;124196;1101;104245;-78
2023/07/05 10:16:10;;;;;;;9.87;6.30;;;;;;;34.67;34.40;100301.09;124153;1102;104271;-76
2023/07/05 10:18:42;;;;;;;11.77;6.47;;;;;;;34.64;34.35;100306.75;124134;1102;104236;-74
2023/07/05 10:21:22;;;;;;;10.17;6.50;;;;;;;34.59;33.97;100308.89;124114;1102;101864;-74
2023/07/05 10:23:55;;;;;;;10.77;6.50;;;;;;;34.47;34.22;100302.45;124202;1102;104326;-77
2023/07/05 10:26:32;;;;;;;9.25;6.25;;;;;;;34.37;33.91;100304.90;124249;1102;104214;-74
2023/07/05 10:29:20;;;;;;;12.67;6.67;;;;;;;34.23;33.92;100307.64;124258;1102;102113;-75
2023/07/05 10:32:04;;;;;;;10.73;6.37;;;;;;;34.18;33.92;100309.81;124329;1102;104194;-78
2023/07/05 10:34:36;;;;;;;10.43;6.40;;;;;;;34.15;33.74;100305.43;124619;1102;101893;-77
2023/07/05 10:37:30;;;;;;;11.10;6.37;;;;;;;34.09;33.77;100304.97;124280;1102;104275;-77
2023/07/05 10:40:09;;;;;;;12.77;7.00;;;;;;;34.11;33.54;100297.56;124150;1102;102003;-81
2023/07/05 10:42:51;;;;;;;10.50;6.20;;;;;;;34.16;33.61;100296.30;124158;1102;104296;-75
2023/07/05 10:45:34;;;;;;;12.33;6.67;;;;;;;34.12;33.92;100294.74;124191;1102;104163;-77
2023/07/05 10:48:30;;;;;;;11.00;6.33;;;;;;;34.07;33.83;100285.16;124869;1102;104191;-80
2023/07/05 10:51:02;;;;;;;15.03;6.30;;;;;;;34.01;33.61;100286.42;124108;1102;104306;-76
2023/07/05 10:53:36;;;;;;;9.97;6.13;;;;;;;34.01;33.62;100292.73;124399;1101;104236;-78
2023/07/05 10:56:19;;;;;;;11.57;6.57;;;;;;;34.02;34.03;100286.32;124238;1102;104252;-76
2023/07/05 10:58:56;;;;;;;12.13;6.80;;;;;;;34.01;34.28;100287.28;124145;1102;104227;-75
2023/07/05 11:01:38;;;;;;;9.75;6.50;;;;;;;34.05;34.12;100277.09;124156;1101;104427;-74
2023/07/05 11:04:28;;;;;;;13.70;6.72;;;;;;;34.04;34.31;100281.64;124166;1102;104323;-74
2023/07/05 11:07:07;;;;;;;10.95;6.45;;;;;;;34.01;33.93;100276.40;124247;1102;104249;-76
2023/07/05 11:09:41;;;;;;;10.37;6.03;;;;;;;34.13;33.87;100276.58;124150;1102;104236;-75
2023/07/05 11:12:23;;;;;;;12.90;6.47;;;;;;;34.28;34.26;100269.25;124166;1102;103912;-74
2023/07/05 11:14:54;;;;;;;;;;;;;;;34.43;32.47;100267.35;124091;1101;104242;-75
2023/07/05 11:17:33;;;;;;;12.70;6.80;;;;;;;34.64;33.10;100259.55;124186;1102;104073;-76
2023/07/05 11:20:45;;;;;;;10.07;6.33;;;;;;;34.76;33.49;100255.14;124143;1102;102095;-76
2023/07/05 11:23:56;;;;;;;9.90;5.57;;;;;;;34.75;32.37;100248.83;124164;1102;104271;-75
2023/07/05 11:26:38;;;;;;;13.80;6.20;;;;;;;34.93;32.09;100254.82;124193;1100;102095;-78
2023/07/05 11:29:47;;;;;;;11.23;6.40;;;;;;;34.95;31.19;100243.81;124152;1102;104382;-79
2023/07/05 11:33:08;;;;;;;11.30;6.27;;;;;;;34.84;31.20;100247.29;124109;1102;104178;-74
2023/07/05 11:35:49;;;;;;;10.17;5.97;;;;;;;35.02;31.29;100243.27;124100;1102;104243;-75
2023/07/05 11:38:52;;;;;;;9.50;5.97;;;;;;;35.10;31.05;100253.63;125596;1101;104006;-76
2023/07/05 11:41:34;;;;;;;11.90;5.80;;;;;;;35.01;30.90;100249.69;124376;1100;102831;-77
2023/07/05 11:44:30;;;;;;;13.73;6.20;;;;;;;34.98;30.56;100249.05;124713;1102;102060;-78